Time;durP1;ratioP1;P1;durP2;ratioP2;P2;SDS_P1;SDS_P2;PMS_P1;PMS_P2;Temp;Humidity;BMP_temperature;BMP_pressure;BME280_temperature;BME280_humidity;BME280_pressure;Samples;Min_cycle;Max_cycle;Signal;HPM_P1;HPM_P2
2022/03/07 01:24:26;;;;;;;0.75;0.60;;;-1.00;99.90;;;;;;6057086;23;20034;-86
2022/03/07 05:38:16;;;;;;;1.77;0.88;;;-2.80;99.90;;;;;;6214702;23;20335;-86
2022/03/07 05:44:53;;;;;;;1.20;0.75;;;-2.80;99.90;;;;;;6122518;23;20045;-86
2022/03/07 06:39:25;;;;;;;2.20;0.80;;;-2.90;99.90;;;;;;6243741;22;20091;-86
2022/03/07 06:43:04;;;;;;;;;;;;;;;;;;;;;
2022/03/07 06:57:27;;;;;;;1.25;0.90;;;-2.60;99.90;;;;;;6231620;23;20020;-86
2022/03/07 07:00:08;;;;;;;0.80;0.60;;;-2.60;99.90;;;;;;6213572;23;20051;-86
2022/03/07 07:34:18;;;;;;;1.02;0.55;;;-1.30;99.90;;;;;;6209379;22;19916;-86
2022/03/07 07:37:55;;;;;;;2.60;0.50;;;-1.10;99.90;;;;;;6214498;23;20103;-86
2022/03/07 07:43:36;;;;;;;0.82;0.50;;;-0.70;99.90;;;;;;6212348;22;20032;-87
2022/03/07 08:09:28;;;;;;;1.33;0.80;;;0.70;99.90;;;;;;6210913;23;20035;-86
2022/03/07 08:23:04;;;;;;;2.63;0.50;;;1.20;99.90;;;;;;6275725;22;20024;-86
2022/03/07 08:25:49;;;;;;;1.15;0.60;;;2.50;99.90;;;;;;6218102;22;20018;-87
2022/03/07 08:33:57;;;;;;;0.90;0.60;;;1.90;99.90;;;;;;6244736;22;20090;-86
2022/03/07 08:37:44;;;;;;;;;;;;;;;;;;;;;
2022/03/07 09:06:30;;;;;;;4.00;0.98;;;3.70;99.90;;;;;;6217012;22;20025;-85
2022/03/07 09:09:05;;;;;;;2.25;0.95;;;3.60;99.90;;;;;;6101979;22;20111;-85
2022/03/07 09:25:06;;;;;;;1.45;0.50;;;4.80;99.90;;;;;;6214972;22;20025;-86
2022/03/07 09:59:38;;;;;;;2.25;0.63;;;6.40;99.90;;;;;;6218849;22;20029;-85
2022/03/07 10:29:30;;;;;;;1.17;0.55;;;7.80;99.90;;;;;;6214374;23;20024;-85
2022/03/07 10:32:02;;;;;;;1.20;0.40;;;8.00;99.90;;;;;;6157183;23;20028;-85
2022/03/07 10:35:01;;;;;;;0.77;0.47;;;8.50;99.90;;;;;;6182041;23;20013;-86
2022/03/07 10:38:29;;;;;;;1.55;0.50;;;8.30;99.90;;;;;;6122955;23;20142;-87
2022/03/07 10:41:21;;;;;;;;;;;;;;;;;;;;;
2022/03/07 10:43:53;;;;;;;0.98;0.50;;;8.70;99.90;;;;;;6007491;23;20453;-87
2022/03/07 10:46:31;;;;;;;5.35;0.60;;;8.50;99.90;;;;;;6007718;23;20019;-86
2022/03/07 10:53:05;;;;;;;1.25;0.50;;;9.00;99.90;;;;;;6009279;23;20119;-87
2022/03/07 10:58:57;;;;;;;2.60;0.50;;;8.80;99.90;;;;;;6212505;22;20024;-87
2022/03/07 11:01:47;;;;;;;3.42;0.50;;;8.40;99.90;;;;;;6148040;23;20099;-86
2022/03/07 11:04:21;;;;;;;2.50;0.60;;;8.30;99.90;;;;;;6186154;23;20336;-86
2022/03/07 11:10:15;;;;;;;1.67;0.70;;;8.10;99.90;;;;;;6264167;22;20023;-87
2022/03/07 11:12:42;;;;;;;1.42;0.57;;;8.00;99.90;;;;;;6277309;22;20023;-87
2022/03/07 11:15:09;;;;;;;1.65;0.50;;;8.00;99.90;;;;;;6277487;22;20011;-87
2022/03/07 11:17:43;;;;;;;3.17;0.60;;;8.10;99.90;;;;;;6241324;22;21099;-86
2022/03/07 11:20:17;;;;;;;2.28;0.57;;;8.30;99.90;;;;;;6189220;23;20071;-86
2022/03/07 11:22:50;;;;;;;0.80;0.50;;;8.00;99.90;;;;;;6189434;23;20440;-86
2022/03/07 11:25:17;;;;;;;3.47;1.05;;;8.30;99.90;;;;;;6188765;23;20012;-89
2022/03/07 11:27:44;;;;;;;2.85;0.60;;;8.40;99.90;;;;;;6189961;23;20016;-86
2022/03/07 11:30:20;;;;;;;1.30;0.65;;;7.80;99.90;;;;;;6216296;23;20088;-86
2022/03/07 11:33:36;;;;;;;4.07;0.60;;;7.90;99.90;;;;;;6213868;23;20049;-85
2022/03/07 11:36:08;;;;;;;0.60;0.47;;;7.90;99.90;;;;;;6129069;23;20468;-87
2022/03/07 11:38:57;;;;;;;1.67;0.60;;;7.90;99.90;;;;;;6128359;23;20065;-86
2022/03/07 11:41:31;;;;;;;2.38;0.60;;;7.90;99.90;;;;;;6153466;23;20021;-85
2022/03/07 11:44:00;;;;;;;3.60;0.85;;;8.00;99.90;;;;;;6128976;23;20409;-86
2022/03/07 11:46:34;;;;;;;1.75;0.50;;;8.70;99.90;;;;;;6153384;23;20023;-85
2022/03/07 11:56:27;;;;;;;2.47;0.45;;;9.10;99.90;;;;;;6154031;23;20067;-85
2022/03/07 11:59:00;;;;;;;2.20;0.47;;;9.40;99.90;;;;;;6104690;23;20017;-85
2022/03/07 12:01:52;;;;;;;0.68;0.40;;;9.40;99.90;;;;;;6127445;23;20483;-86
2022/03/07 12:11:59;;;;;;;0.68;0.43;;;9.70;99.90;;;;;;6216248;23;20448;-86
2022/03/07 12:15:11;;;;;;;3.05;0.60;;;10.00;99.90;;;;;;6188247;23;20043;-86
2022/03/07 12:18:42;;;;;;;0.90;0.50;;;10.40;99.90;;;;;;6171225;23;20028;-86
2022/03/07 12:21:08;;;;;;;0.80;0.60;;;10.50;99.90;;;;;;6219768;23;20024;-86
2022/03/07 12:23:58;;;;;;;2.10;0.57;;;10.20;99.90;;;;;;6246400;23;20016;-86
2022/03/07 12:27:14;;;;;;;2.30;0.60;;;10.20;99.90;;;;;;6246138;23;20024;-86
2022/03/07 12:32:57;;;;;;;0.60;0.40;;;10.00;99.90;;;;;;6091299;23;20378;-85
2022/03/07 12:35:39;;;;;;;0.73;0.50;;;10.20;99.90;;;;;;6070106;23;20385;-86
2022/03/07 12:38:34;;;;;;;1.58;0.50;;;10.30;99.90;;;;;;6094490;23;20026;-86
2022/03/07 12:42:14;;;;;;;0.70;0.50;;;10.00;99.90;;;;;;6094267;23;20355;-86
2022/03/07 12:44:59;;;;;;;1.10;0.60;;;10.60;99.90;;;;;;6036924;23;20020;-86
2022/03/07 12:47:43;;;;;;;1.33;0.70;;;10.90;99.90;;;;;;6006707;23;20400;-86
2022/03/07 12:54:08;;;;;;;1.55;0.50;;;11.20;99.80;;;;;;6008595;23;20050;-85
2022/03/07 12:57:06;;;;;;;2.13;0.50;;;11.20;99.60;;;;;;6008619;23;20019;-86
2022/03/07 12:59:44;;;;;;;2.03;0.55;;;11.10;96.30;;;;;;5983598;23;20060;-86
2022/03/07 13:03:10;;;;;;;0.93;0.40;;;11.10;98.70;;;;;;6008765;23;20028;-86
2022/03/07 13:05:44;;;;;;;1.80;0.43;;;11.20;95.70;;;;;;5976713;23;20431;-86
2022/03/07 13:08:47;;;;;;;1.10;0.50;;;11.00;95.40;;;;;;6036540;23;20023;-85
2022/03/07 13:11:57;;;;;;;0.80;0.50;;;11.10;95.40;;;;;;5973199;23;20172;-84
2022/03/07 13:14:54;;;;;;;1.95;0.70;;;11.10;95.10;;;;;;6061281;23;20018;-86
2022/03/07 13:17:22;;;;;;;2.03;0.50;;;11.10;97.00;;;;;;6076300;23;20453;-86
2022/03/07 13:44:10;;;;;;;1.20;0.80;;;10.70;91.40;;;;;;6230074;22;20051;-86
2022/03/07 13:47:35;;;;;;;1.05;0.80;;;10.60;91.60;;;;;;6191025;23;20415;-86
2022/03/07 14:23:31;;;;;;;0.93;0.50;;;10.90;81.40;;;;;;6239261;22;20086;-87
2022/03/07 14:27:16;;;;;;;2.47;0.47;;;10.70;84.70;;;;;;6244943;23;20020;-85
2022/03/07 15:00:27;;;;;;;1.98;0.90;;;9.90;97.00;;;;;;6099804;23;20334;-83
2022/03/07 15:03:08;;;;;;;2.83;0.90;;;9.90;93.20;;;;;;6098960;23;20022;-85
2022/03/07 15:05:43;;;;;;;1.75;1.17;;;10.10;95.30;;;;;;6134640;23;20431;-84
2022/03/07 15:15:30;;;;;;;4.20;0.75;;;9.50;93.70;;;;;;6182199;22;20079;-84
2022/03/07 15:20:37;;;;;;;3.63;0.70;;;9.30;91.80;;;;;;6212164;22;20355;-86
2022/03/07 15:23:07;;;;;;;1.95;0.80;;;9.10;96.20;;;;;;6189395;23;20047;-84
2022/03/07 15:25:41;;;;;;;2.25;0.88;;;9.00;96.80;;;;;;6215955;23;20067;-84
2022/03/07 15:28:09;;;;;;;3.25;1.00;;;8.80;99.00;;;;;;6214785;23;20016;-86
2022/03/07 15:30:36;;;;;;;1.48;0.85;;;9.40;99.90;;;;;;6215718;23;20020;-82
2022/03/07 15:33:04;;;;;;;1.95;0.93;;;8.50;99.90;;;;;;6189614;23;20028;-83
2022/03/07 15:35:30;;;;;;;0.90;0.70;;;8.50;99.90;;;;;;6189480;23;20340;-82
2022/03/07 15:37:59;;;;;;;1.85;0.90;;;9.00;99.80;;;;;;6215452;23;20020;-83
2022/03/07 15:40:25;;;;;;;1.58;0.95;;;8.30;98.60;;;;;;6215978;23;20427;-81
2022/03/07 15:42:54;;;;;;;2.70;0.80;;;8.20;98.40;;;;;;6215844;23;20071;-83
2022/03/07 15:45:30;;;;;;;1.50;0.80;;;8.10;97.80;;;;;;6216411;23;20035;-83
2022/03/07 15:48:21;;;;;;;1.73;1.08;;;8.40;99.90;;;;;;6189208;23;20268;-83
2022/03/07 16:01:56;;;;;;;2.08;1.00;;;7.80;99.90;;;;;;6245772;23;20023;-83
2022/03/07 16:04:22;;;;;;;2.63;0.98;;;8.40;99.90;;;;;;6219458;23;20028;-83
2022/03/07 16:06:51;;;;;;;2.38;1.10;;;7.60;99.90;;;;;;6218957;23;20496;-83
2022/03/07 16:09:19;;;;;;;2.88;1.20;;;8.10;99.90;;;;;;6246237;23;20052;-82
2022/03/07 16:11:46;;;;;;;2.38;1.17;;;7.50;99.90;;;;;;6217120;23;20456;-83
2022/03/07 16:14:13;;;;;;;2.33;1.10;;;7.30;99.90;;;;;;6245500;23;20020;-83
2022/03/07 16:16:44;;;;;;;3.10;0.95;;;7.40;99.90;;;;;;6219062;23;20016;-83
2022/03/07 16:19:13;;;;;;;3.63;1.10;;;7.30;99.90;;;;;;6219322;23;20024;-83
2022/03/07 16:21:39;;;;;;;3.08;0.90;;;7.20;99.90;;;;;;6217921;23;20101;-82
2022/03/07 16:24:22;;;;;;;2.83;0.93;;;7.20;99.90;;;;;;6218508;23;20028;-85
2022/03/07 16:27:10;;;;;;;3.85;1.08;;;7.10;99.90;;;;;;6217096;23;20142;-85
2022/03/07 16:29:44;;;;;;;3.05;0.98;;;7.00;99.90;;;;;;6219030;23;20020;-84
2022/03/07 16:32:12;;;;;;;2.55;1.20;;;6.90;99.90;;;;;;6192783;23;20524;-82
2022/03/07 16:34:38;;;;;;;4.90;0.90;;;7.40;99.90;;;;;;6193676;23;20027;-82
2022/03/07 16:37:05;;;;;;;2.65;0.90;;;7.70;99.90;;;;;;6245650;23;20095;-81
2022/03/07 16:39:35;;;;;;;4.72;1.05;;;6.60;99.90;;;;;;6246128;23;20090;-82
2022/03/07 16:42:11;;;;;;;1.90;1.08;;;6.50;99.90;;;;;;6245904;23;20024;-83
2022/03/07 16:44:50;;;;;;;3.08;0.77;;;6.40;99.90;;;;;;6194652;23;20062;-83
2022/03/07 16:47:36;;;;;;;1.40;0.80;;;6.30;99.90;;;;;;6196056;23;20018;-83
2022/03/07 16:50:11;;;;;;;1.42;0.82;;;6.50;99.90;;;;;;6218480;23;20115;-83
2022/03/07 16:52:43;;;;;;;3.33;1.50;;;6.10;99.90;;;;;;6242333;23;20047;-83
2022/03/07 16:55:10;;;;;;;2.30;0.80;;;6.00;99.90;;;;;;6217637;23;20016;-82
2022/03/07 16:57:38;;;;;;;2.67;0.82;;;5.90;99.90;;;;;;6218755;23;20039;-82
2022/03/07 17:00:07;;;;;;;3.33;1.10;;;6.10;99.90;;;;;;6217424;23;20020;-82
2022/03/07 17:02:37;;;;;;;2.63;0.90;;;5.70;99.90;;;;;;6217710;23;20016;-84
2022/03/07 17:05:04;;;;;;;3.35;0.93;;;5.60;99.90;;;;;;6218384;23;20096;-83
2022/03/07 17:07:30;;;;;;;2.15;1.10;;;5.50;99.90;;;;;;6193347;23;20022;-83
2022/03/07 17:10:04;;;;;;;3.10;1.10;;;6.20;99.90;;;;;;6218506;23;20427;-82
2022/03/07 17:12:30;;;;;;;3.95;1.00;;;5.40;99.90;;;;;;6218880;23;20028;-86
2022/03/07 17:15:05;;;;;;;3.03;1.63;;;5.60;99.90;;;;;;6245302;23;20122;-82
2022/03/07 17:17:37;;;;;;;3.30;1.00;;;5.30;99.90;;;;;;6218574;23;20024;-84
2022/03/07 17:20:12;;;;;;;2.10;1.00;;;5.20;99.90;;;;;;6244976;23;20103;-82
2022/03/07 17:22:43;;;;;;;1.87;1.00;;;5.10;99.90;;;;;;6245172;23;20032;-85
2022/03/07 17:25:28;;;;;;;3.15;1.17;;;5.20;99.90;;;;;;6191821;23;20251;-82
2022/03/07 17:28:00;;;;;;;4.35;1.23;;;4.90;99.90;;;;;;6245500;23;20440;-83
2022/03/07 17:30:26;;;;;;;2.70;0.80;;;4.30;99.90;;;;;;6217932;23;20486;-83
2022/03/07 17:33:29;;;;;;;1.98;1.30;;;4.80;99.90;;;;;;6217726;23;20026;-83
2022/03/07 17:36:05;;;;;;;1.40;0.88;;;4.90;99.90;;;;;;6218267;23;20091;-85
2022/03/07 17:38:36;;;;;;;2.78;1.10;;;4.40;99.90;;;;;;6217994;23;20027;-85
2022/03/07 17:41:07;;;;;;;2.90;1.10;;;4.50;99.90;;;;;;6218370;23;20031;-84
2022/03/07 17:43:33;;;;;;;3.05;1.23;;;4.50;99.90;;;;;;6192873;23;20020;-85
2022/03/07 17:46:33;;;;;;;1.13;0.90;;;4.40;99.90;;;;;;6218096;23;20023;-85
2022/03/07 17:49:48;;;;;;;2.85;0.93;;;3.50;99.90;;;;;;6123678;23;20021;-86
2022/03/07 17:52:14;;;;;;;;;;;4.70;99.90;;;;;;6099661;22;20331;-82
2022/03/07 17:54:39;;;;;;;1.80;1.08;;;4.10;99.90;;;;;;6246231;23;19927;-82
2022/03/07 17:57:05;;;;;;;2.63;1.00;;;4.10;99.90;;;;;;6247628;23;20016;-81
2022/03/07 17:59:33;;;;;;;2.72;1.00;;;2.80;99.90;;;;;;6218072;23;20018;-82
2022/03/07 18:01:59;;;;;;;3.95;1.20;;;4.50;99.90;;;;;;6244247;23;20012;-81
2022/03/07 18:04:25;;;;;;;2.83;1.10;;;3.90;99.90;;;;;;6218753;23;20020;-82
2022/03/07 18:06:51;;;;;;;4.28;1.17;;;3.50;99.90;;;;;;6217946;23;20028;-82
2022/03/07 18:09:17;;;;;;;3.47;1.10;;;3.70;99.90;;;;;;6217871;23;20024;-82
2022/03/07 18:11:42;;;;;;;1.92;1.00;;;3.90;99.90;;;;;;6244734;23;20023;-82
2022/03/07 18:14:09;;;;;;;1.40;1.10;;;3.50;99.90;;;;;;6217989;23;20055;-81
2022/03/07 18:16:35;;;;;;;2.65;1.05;;;3.00;99.90;;;;;;6217492;23;20079;-82
2022/03/07 18:19:09;;;;;;;5.25;1.83;;;3.40;99.90;;;;;;6217805;23;20447;-87
2022/03/07 18:33:22;;;;;;;3.92;1.20;;;3.00;99.90;;;;;;6244886;23;20047;-83
2022/03/07 18:39:28;;;;;;;2.83;1.73;;;2.90;99.90;;;;;;6244604;23;20369;-82
2022/03/07 18:41:54;;;;;;;4.95;1.92;;;2.60;99.90;;;;;;6192573;23;20024;-82
2022/03/07 18:44:20;;;;;;;4.45;1.88;;;2.80;99.90;;;;;;6245125;23;20028;-82
2022/03/07 18:46:45;;;;;;;3.85;1.67;;;2.70;99.90;;;;;;6192772;23;20115;-82
2022/03/07 18:49:11;;;;;;;2.90;1.58;;;2.60;99.90;;;;;;6217251;23;20027;-82
2022/03/07 18:51:37;;;;;;;2.88;1.73;;;2.50;99.90;;;;;;6217560;23;20020;-82
2022/03/07 18:54:04;;;;;;;3.60;1.98;;;2.50;99.90;;;;;;6217265;23;20017;-81
2022/03/07 18:56:31;;;;;;;3.72;1.52;;;2.40;99.90;;;;;;6217707;23;20466;-82
2022/03/07 18:58:57;;;;;;;4.28;1.40;;;2.30;99.90;;;;;;6217344;23;20016;-81
2022/03/07 19:01:23;;;;;;;2.95;1.50;;;2.30;99.90;;;;;;6217558;23;20073;-82
2022/03/07 19:03:52;;;;;;;5.75;1.38;;;2.30;99.90;;;;;;6245069;23;20215;-82
2022/03/07 19:10:00;;;;;;;2.80;1.55;;;2.20;99.90;;;;;;6244304;23;20450;-83
2022/03/07 19:12:39;;;;;;;3.53;1.20;;;2.20;99.90;;;;;;6244991;23;20024;-82
2022/03/07 19:15:08;;;;;;;1.75;1.02;;;2.20;99.90;;;;;;6245861;23;20019;-83
2022/03/07 19:17:37;;;;;;;2.03;1.30;;;2.20;99.90;;;;;;6194551;23;20016;-82
2022/03/07 19:20:04;;;;;;;2.25;1.15;;;2.20;99.90;;;;;;6246465;23;20016;-82
2022/03/07 19:22:29;;;;;;;1.63;1.13;;;2.20;99.90;;;;;;6219124;23;20031;-83
2022/03/07 19:24:55;;;;;;;2.28;1.23;;;2.70;99.90;;;;;;6219516;23;20504;-82
2022/03/07 19:27:31;;;;;;;2.83;1.10;;;2.40;99.90;;;;;;6218855;23;20355;-83
2022/03/07 19:30:00;;;;;;;2.47;1.27;;;2.60;99.90;;;;;;6246091;23;20023;-83
2022/03/07 19:32:26;;;;;;;2.35;0.90;;;2.30;99.90;;;;;;6218830;23;20016;-82
2022/03/07 19:34:51;;;;;;;2.65;1.10;;;2.00;99.90;;;;;;6219916;23;20334;-81
2022/03/07 19:37:18;;;;;;;3.55;1.15;;;1.60;99.90;;;;;;6246558;23;20051;-82
2022/03/07 19:39:44;;;;;;;2.33;1.23;;;2.70;99.90;;;;;;6219644;23;20455;-83
2022/03/07 19:42:09;;;;;;;3.20;1.15;;;1.80;99.90;;;;;;6219265;23;20023;-82
2022/03/07 19:44:35;;;;;;;2.90;1.40;;;2.40;99.90;;;;;;6246237;23;20517;-81
2022/03/07 19:47:01;;;;;;;2.72;1.20;;;1.70;99.90;;;;;;6219450;23;20456;-82
2022/03/07 19:49:30;;;;;;;3.05;1.10;;;1.80;99.90;;;;;;6218942;23;20020;-82
2022/03/07 19:51:56;;;;;;;2.20;1.10;;;1.50;99.90;;;;;;6245718;23;20017;-81
2022/03/07 19:54:22;;;;;;;2.17;1.42;;;1.70;99.90;;;;;;6218957;23;20194;-82
2022/03/07 19:56:48;;;;;;;1.63;1.33;;;1.50;99.90;;;;;;6219077;23;20024;-82
2022/03/07 19:59:16;;;;;;;2.95;1.35;;;1.70;99.90;;;;;;6194898;23;20019;-82
2022/03/07 20:01:53;;;;;;;2.90;1.13;;;1.60;99.90;;;;;;6218768;23;20417;-83
2022/03/07 20:04:55;;;;;;;1.70;0.90;;;2.50;99.90;;;;;;6193291;23;20020;-83
2022/03/07 20:07:29;;;;;;;2.15;0.90;;;1.70;99.90;;;;;;6191620;23;20020;-83
2022/03/07 20:10:08;;;;;;;4.15;1.40;;;1.20;99.90;;;;;;6215977;23;20442;-82
2022/03/07 20:12:46;;;;;;;2.60;1.30;;;1.40;99.90;;;;;;6218756;23;20402;-83
2022/03/07 20:15:30;;;;;;;2.00;0.90;;;0.90;99.90;;;;;;6245704;23;20398;-83
2022/03/07 20:17:56;;;;;;;2.42;1.02;;;1.60;99.90;;;;;;6245879;23;20062;-82
2022/03/07 20:20:22;;;;;;;3.65;1.30;;;0.30;99.90;;;;;;6218636;23;20091;-82
2022/03/07 20:22:48;;;;;;;1.58;0.95;;;0.70;99.90;;;;;;6218509;23;20398;-81
2022/03/07 20:25:24;;;;;;;4.50;1.40;;;1.50;99.90;;;;;;6218094;23;20091;-83
2022/03/07 20:28:04;;;;;;;2.15;1.38;;;1.40;99.90;;;;;;6245993;23;20107;-83
2022/03/07 20:30:39;;;;;;;3.03;1.13;;;0.80;99.90;;;;;;6195494;23;20034;-83
2022/03/07 20:33:06;;;;;;;2.08;1.20;;;0.10;99.90;;;;;;6219067;23;20030;-84
2022/03/07 20:35:32;;;;;;;2.83;1.05;;;0.70;99.90;;;;;;6219022;23;20078;-81
2022/03/07 20:38:32;;;;;;;2.08;1.00;;;0.80;99.90;;;;;;6218584;23;20099;-85
2022/03/07 20:41:23;;;;;;;3.05;1.63;;;-0.20;99.90;;;;;;6245876;23;20019;-83
2022/03/07 20:43:57;;;;;;;2.35;1.00;;;0.70;99.90;;;;;;6193526;23;20024;-84
2022/03/07 20:46:27;;;;;;;2.95;1.27;;;1.50;99.90;;;;;;6221353;22;20043;-83
2022/03/07 20:49:02;;;;;;;1.75;1.00;;;0.60;99.90;;;;;;6188491;23;20104;-82
2022/03/07 20:55:11;;;;;;;2.55;1.20;;;1.30;99.90;;;;;;6215050;23;20016;-85
2022/03/07 20:57:41;;;;;;;3.15;1.58;;;0.50;99.90;;;;;;6188336;23;20482;-85
2022/03/07 21:00:24;;;;;;;2.25;1.40;;;0.90;99.90;;;;;;6187915;23;20024;-85
2022/03/07 21:02:52;;;;;;;2.70;1.40;;;0.40;99.90;;;;;;6215019;23;20103;-85
2022/03/07 21:05:18;;;;;;;1.40;1.02;;;0.50;99.90;;;;;;6187202;23;20396;-84
2022/03/07 21:07:47;;;;;;;2.45;1.05;;;0.40;99.90;;;;;;6187917;23;20059;-86
2022/03/07 21:10:46;;;;;;;2.55;1.48;;;0.40;99.90;;;;;;6213740;23;20017;-83
2022/03/07 21:13:33;;;;;;;3.38;1.13;;;0.70;99.90;;;;;;6188258;23;20031;-84
2022/03/07 21:16:08;;;;;;;3.05;1.38;;;1.10;99.90;;;;;;6215100;23;20091;-85
2022/03/07 21:19:13;;;;;;;;;;;;;;;;;;;;;
2022/03/07 21:25:29;;;;;;;2.53;1.00;;;0.20;99.90;;;;;;6214638;23;20112;-84
2022/03/07 21:27:55;;;;;;;2.95;1.10;;;-0.40;99.90;;;;;;6187853;23;20104;-82
2022/03/07 21:30:21;;;;;;;2.35;1.20;;;0.30;99.90;;;;;;6187868;23;20056;-82
2022/03/07 21:32:53;;;;;;;3.30;1.20;;;0.30;99.90;;;;;;6188105;23;20096;-83
2022/03/07 21:35:26;;;;;;;3.10;1.17;;;0.00;99.90;;;;;;6163116;23;20036;-82
2022/03/07 21:37:56;;;;;;;4.15;1.77;;;-0.10;99.90;;;;;;6187638;23;20056;-82
2022/03/07 21:40:22;;;;;;;3.38;1.80;;;0.50;99.90;;;;;;6187660;23;20079;-82
2022/03/07 21:42:49;;;;;;;2.53;1.35;;;1.40;99.90;;;;;;6214759;23;20466;-82
2022/03/07 21:45:16;;;;;;;2.53;1.25;;;0.50;99.90;;;;;;6188063;23;20012;-83
2022/03/07 21:47:43;;;;;;;3.25;1.85;;;0.10;99.90;;;;;;6214329;23;20616;-82
2022/03/07 21:50:09;;;;;;;3.88;1.77;;;0.10;99.90;;;;;;6187138;23;20016;-82
2022/03/07 21:52:47;;;;;;;3.67;1.85;;;0.40;99.90;;;;;;6187467;23;20016;-84
2022/03/07 21:55:39;;;;;;;4.30;1.95;;;0.70;99.90;;;;;;6187198;23;20020;-84
2022/03/07 21:58:08;;;;;;;3.65;2.15;;;-0.20;99.90;;;;;;6181794;23;20021;-86
2022/03/07 22:03:35;;;;;;;3.22;1.25;;;-0.50;99.90;;;;;;6122477;23;20022;-83
2022/03/07 22:09:06;;;;;;;3.03;1.30;;;0.70;99.90;;;;;;6039904;23;20038;-83
2022/03/07 22:12:11;;;;;;;2.85;1.30;;;0.30;99.90;;;;;;6062427;23;20022;-84
2022/03/07 22:14:57;;;;;;;3.53;1.55;;;0.20;99.90;;;;;;6065020;23;20034;-84
2022/03/07 22:17:39;;;;;;;2.72;1.35;;;-0.10;99.90;;;;;;6039318;23;20114;-84
2022/03/07 22:20:47;;;;;;;2.80;1.48;;;0.20;99.90;;;;;;6064895;23;20103;-83
2022/03/07 22:23:22;;;;;;;2.80;1.70;;;0.80;99.90;;;;;;6040524;23;20135;-84
2022/03/07 22:26:41;;;;;;;;;;;;;;;;;;;;;
2022/03/07 22:29:25;;;;;;;3.67;1.75;;;0.90;99.90;;;;;;5977977;23;20027;-83
2022/03/07 22:32:05;;;;;;;3.92;1.58;;;0.40;99.90;;;;;;6064593;23;20019;-82
2022/03/07 22:34:39;;;;;;;1.98;1.35;;;0.10;99.90;;;;;;6071238;23;20488;-84
2022/03/07 22:37:59;;;;;;;;;;;;;;;;;;;;;
2022/03/07 23:31:24;;;;;;;3.10;1.48;;;-1.20;99.90;;;;;;6018667;23;20150;-84
